Time;durP1;ratioP1;P1;durP2;ratioP2;P2;SDS_P1;SDS_P2;PMS_P1;PMS_P2;Temp;Humidity;BMP_temperature;BMP_pressure;BME280_temperature;BME280_humidity;BME280_pressure;Samples;Min_cycle;Max_cycle;Signal;HPM_P1;HPM_P2
2023/05/20 00:02:11;;;;;;;3.63;2.27;;;;;;;;;;4939167;29;21052;-78
2023/05/20 00:04:39;;;;;;;2.90;1.70;;;;;;;;;;4939408;29;20414;-75
2023/05/20 00:07:05;;;;;;;2.60;2.30;;;;;;;;;;4938647;29;20965;-76
2023/05/20 00:09:31;;;;;;;2.30;2.00;;;;;;;;;;4939344;29;20449;-76
2023/05/20 00:11:57;;;;;;;2.30;1.50;;;;;;;;;;4938822;29;20867;-76
2023/05/20 00:14:23;;;;;;;3.53;1.80;;;;;;;;;;4938731;29;20424;-76
2023/05/20 00:16:49;;;;;;;4.33;2.33;;;;;;;;;;4939416;29;20409;-76
2023/05/20 00:19:15;;;;;;;2.43;1.73;;;;;;;;;;4937989;29;20417;-76
2023/05/20 00:21:41;;;;;;;4.13;1.80;;;;;;;;;;4939118;29;20445;-76
2023/05/20 00:24:07;;;;;;;3.13;1.70;;;;;;;;;;4938886;29;20414;-76
2023/05/20 00:26:33;;;;;;;2.03;1.50;;;;;;;;;;4938765;29;20410;-76
2023/05/20 00:29:00;;;;;;;4.60;1.83;;;;;;;;;;4938593;29;20413;-76
2023/05/20 00:31:25;;;;;;;1.87;1.70;;;;;;;;;;4938492;29;20406;-76
2023/05/20 00:33:51;;;;;;;1.53;1.40;;;;;;;;;;4938984;29;20468;-76
2023/05/20 00:36:18;;;;;;;3.37;1.70;;;;;;;;;;4938519;29;20413;-76
2023/05/20 00:38:44;;;;;;;2.10;1.40;;;;;;;;;;4939035;29;20412;-76
2023/05/20 00:41:09;;;;;;;3.17;1.60;;;;;;;;;;4938690;29;20409;-76
2023/05/20 00:43:35;;;;;;;3.83;2.50;;;;;;;;;;4938722;29;20872;-76
2023/05/20 00:46:02;;;;;;;2.10;1.70;;;;;;;;;;4939120;29;20409;-76
2023/05/20 00:48:32;;;;;;;9.27;2.00;;;;;;;;;;4938484;29;20567;-76
2023/05/20 00:50:58;;;;;;;2.40;1.60;;;;;;;;;;4938677;29;20461;-76
2023/05/20 00:53:25;;;;;;;5.77;1.80;;;;;;;;;;4938937;29;20429;-76
2023/05/20 00:55:51;;;;;;;3.13;2.00;;;;;;;;;;4939189;29;20413;-76
2023/05/20 00:58:17;;;;;;;2.70;1.77;;;;;;;;;;4938796;29;20401;-76
2023/05/20 01:00:43;;;;;;;5.40;2.47;;;;;;;;;;4938537;29;20428;-76
2023/05/20 01:03:09;;;;;;;3.03;2.07;;;;;;;;;;4938678;29;20465;-76
2023/05/20 01:05:35;;;;;;;3.07;1.60;;;;;;;;;;4938578;29;20388;-76
2023/05/20 01:08:01;;;;;;;2.80;1.57;;;;;;;;;;4938579;29;20414;-76
2023/05/20 01:10:29;;;;;;;4.00;1.93;;;;;;;;;;4938542;29;20921;-76
2023/05/20 01:12:56;;;;;;;2.10;1.90;;;;;;;;;;4938285;29;20474;-76
2023/05/20 01:15:23;;;;;;;2.30;2.07;;;;;;;;;;4938088;29;20508;-76
2023/05/20 01:17:51;;;;;;;2.73;1.80;;;;;;;;;;4938906;29;20380;-76
2023/05/20 01:20:17;;;;;;;2.40;1.67;;;;;;;;;;4938982;29;20421;-76
2023/05/20 01:22:47;;;;;;;2.60;1.93;;;;;;;;;;4938988;29;20465;-76
2023/05/20 01:25:13;;;;;;;6.73;1.63;;;;;;;;;;4938919;29;20500;-76
2023/05/20 01:27:39;;;;;;;3.00;1.80;;;;;;;;;;4938777;29;20460;-76
2023/05/20 01:30:06;;;;;;;2.07;1.90;;;;;;;;;;4922511;29;20422;-76
2023/05/20 01:32:34;;;;;;;2.00;1.70;;;;;;;;;;4941491;29;20418;-76
2023/05/20 01:35:00;;;;;;;4.50;2.10;;;;;;;;;;4942125;29;20433;-76
2023/05/20 01:37:27;;;;;;;2.47;1.93;;;;;;;;;;4924919;29;20917;-76
2023/05/20 01:39:54;;;;;;;3.67;1.77;;;;;;;;;;4941917;29;20418;-76
2023/05/20 01:42:20;;;;;;;2.57;2.10;;;;;;;;;;4941828;29;20795;-76
2023/05/20 01:44:46;;;;;;;2.60;1.87;;;;;;;;;;4942628;29;20409;-77
2023/05/20 01:47:12;;;;;;;2.90;2.00;;;;;;;;;;4942163;29;20455;-77
2023/05/20 01:49:39;;;;;;;1.97;1.50;;;;;;;;;;4942068;29;20457;-76
2023/05/20 01:52:05;;;;;;;3.43;2.03;;;;;;;;;;4942455;29;20465;-76
2023/05/20 01:54:31;;;;;;;5.10;2.07;;;;;;;;;;4941900;29;20421;-76
2023/05/20 01:56:57;;;;;;;3.30;1.93;;;;;;;;;;4941881;29;20425;-77
2023/05/20 01:59:23;;;;;;;3.40;1.50;;;;;;;;;;4940953;29;20767;-76
2023/05/20 02:01:49;;;;;;;5.33;2.00;;;;;;;;;;4942205;29;20406;-76
2023/05/20 02:04:17;;;;;;;2.00;1.50;;;;;;;;;;4941927;29;20413;-76
2023/05/20 02:06:43;;;;;;;4.90;1.90;;;;;;;;;;4941646;29;20441;-76
2023/05/20 02:09:10;;;;;;;3.20;1.60;;;;;;;;;;4942184;29;20417;-78
2023/05/20 02:11:36;;;;;;;2.70;1.60;;;;;;;;;;4942082;29;20406;-77
2023/05/20 02:14:02;;;;;;;4.10;2.20;;;;;;;;;;4942251;29;20417;-76
2023/05/20 02:16:28;;;;;;;2.43;1.80;;;;;;;;;;4941235;29;20509;-76
2023/05/20 02:18:54;;;;;;;3.20;2.07;;;;;;;;;;4941184;29;20441;-76
2023/05/20 02:21:21;;;;;;;4.87;2.43;;;;;;;;;;4941101;29;20408;-76
2023/05/20 02:23:47;;;;;;;2.43;2.03;;;;;;;;;;4941153;29;20476;-76
2023/05/20 02:26:13;;;;;;;2.43;2.10;;;;;;;;;;4941107;29;20431;-77
2023/05/20 02:28:43;;;;;;;2.73;2.10;;;;;;;;;;4941154;29;20402;-75
2023/05/20 02:31:09;;;;;;;4.20;2.60;;;;;;;;;;4941208;29;20409;-75
2023/05/20 02:33:35;;;;;;;3.27;2.50;;;;;;;;;;4941831;29;20402;-75
2023/05/20 02:36:01;;;;;;;2.83;2.50;;;;;;;;;;4941508;29;20402;-77
2023/05/20 02:38:28;;;;;;;4.10;2.43;;;;;;;;;;4941061;29;20902;-77
2023/05/20 02:40:55;;;;;;;5.00;2.33;;;;;;;;;;4940807;29;20498;-77
2023/05/20 02:43:21;;;;;;;4.73;2.33;;;;;;;;;;4940346;29;20823;-77
2023/05/20 02:45:47;;;;;;;3.97;2.47;;;;;;;;;;4941058;29;20806;-77
2023/05/20 02:48:13;;;;;;;4.07;2.37;;;;;;;;;;4941272;29;20493;-77
2023/05/20 02:50:39;;;;;;;6.20;2.60;;;;;;;;;;4940663;29;20476;-77
2023/05/20 02:53:06;;;;;;;2.70;2.25;;;;;;;;;;4940860;29;20400;-77
2023/05/20 02:55:34;;;;;;;5.30;2.73;;;;;;;;;;4941163;29;20260;-76
2023/05/20 02:58:00;;;;;;;2.43;2.23;;;;;;;;;;4940622;29;20422;-77
2023/05/20 03:00:29;;;;;;;8.53;2.67;;;;;;;;;;4940239;29;20496;-76
2023/05/20 03:02:55;;;;;;;3.73;2.20;;;;;;;;;;4940543;29;20464;-76
2023/05/20 03:05:21;;;;;;;2.40;1.90;;;;;;;;;;4940256;29;20413;-77
2023/05/20 03:07:47;;;;;;;3.83;2.37;;;;;;;;;;4940337;29;20831;-77
2023/05/20 03:10:13;;;;;;;3.60;2.40;;;;;;;;;;4940511;29;20752;-78
2023/05/20 03:12:40;;;;;;;5.88;2.28;;;;;;;;;;4940652;29;20413;-77
2023/05/20 03:15:06;;;;;;;3.40;2.50;;;;;;;;;;4940616;29;20289;-77
2023/05/20 03:17:32;;;;;;;3.83;2.73;;;;;;;;;;4939621;29;20409;-77
2023/05/20 03:20:00;;;;;;;4.35;2.65;;;;;;;;;;4940149;29;20457;-76
2023/05/20 03:22:26;;;;;;;6.30;3.07;;;;;;;;;;4939531;29;20213;-77
2023/05/20 03:24:52;;;;;;;4.50;2.77;;;;;;;;;;4940200;29;20457;-77
2023/05/20 03:27:18;;;;;;;5.97;3.00;;;;;;;;;;4940917;29;20393;-77
2023/05/20 03:29:44;;;;;;;2.77;2.40;;;;;;;;;;4924024;29;20434;-77
2023/05/20 03:32:10;;;;;;;4.57;2.87;;;;;;;;;;4940706;29;20489;-77
2023/05/20 03:34:37;;;;;;;4.47;2.60;;;;;;;;;;4940506;29;20392;-77
2023/05/20 03:37:03;;;;;;;2.67;2.23;;;;;;;;;;4940390;29;20520;-77
2023/05/20 03:39:29;;;;;;;5.33;2.83;;;;;;;;;;4940386;29;20429;-77
2023/05/20 03:41:55;;;;;;;3.20;2.53;;;;;;;;;;4940184;29;20414;-77
2023/05/20 03:44:21;;;;;;;6.43;2.50;;;;;;;;;;4939739;29;20420;-77
2023/05/20 03:46:47;;;;;;;3.03;2.70;;;;;;;;;;4939727;29;20504;-77
2023/05/20 03:49:13;;;;;;;3.50;2.80;;;;;;;;;;4940576;29;20512;-77
2023/05/20 03:51:39;;;;;;;4.45;2.70;;;;;;;;;;4939966;29;20460;-77
2023/05/20 03:54:05;;;;;;;5.43;3.13;;;;;;;;;;4940149;29;20241;-77
2023/05/20 03:56:31;;;;;;;3.25;2.65;;;;;;;;;;4939991;29;20410;-77
2023/05/20 03:58:57;;;;;;;4.15;2.72;;;;;;;;;;4940989;29;20189;-77
2023/05/20 04:01:24;;;;;;;3.28;2.60;;;;;;;;;;4939826;29;20181;-77
2023/05/20 04:03:50;;;;;;;3.63;2.63;;;;;;;;;;4939951;29;20232;-77
2023/05/20 04:06:16;;;;;;;2.78;2.47;;;;;;;;;;4939839;29;20192;-78
2023/05/20 04:08:42;;;;;;;8.30;3.10;;;;;;;;;;4940608;29;20177;-77
2023/05/20 04:11:08;;;;;;;2.95;2.53;;;;;;;;;;4939989;29;20416;-77
2023/05/20 04:13:34;;;;;;;7.40;3.03;;;;;;;;;;4939415;29;20193;-77
2023/05/20 04:16:01;;;;;;;3.30;3.00;;;;;;;;;;4940110;29;20228;-77
2023/05/20 04:18:30;;;;;;;5.47;3.42;;;;;;;;;;4939807;29;20409;-76
2023/05/20 04:20:57;;;;;;;4.00;3.13;;;;;;;;;;4939292;29;20189;-76
2023/05/20 04:23:24;;;;;;;4.00;3.40;;;;;;;;;;4939179;29;20248;-77
2023/05/20 04:25:50;;;;;;;4.50;3.03;;;;;;;;;;4939099;29;20180;-76
2023/05/20 04:28:16;;;;;;;3.80;2.80;;;;;;;;;;4939666;29;20181;-76
2023/05/20 04:30:43;;;;;;;4.15;2.42;;;;;;;;;;4939156;29;20450;-76
2023/05/20 04:33:09;;;;;;;4.40;3.30;;;;;;;;;;4938971;29;20534;-76
2023/05/20 04:35:37;;;;;;;6.03;3.50;;;;;;;;;;4939466;29;20596;-77
2023/05/20 04:38:02;;;;;;;4.30;3.33;;;;;;;;;;4939493;29;20220;-77
2023/05/20 04:40:29;;;;;;;7.20;3.70;;;;;;;;;;4938898;29;20410;-77
2023/05/20 04:42:57;;;;;;;4.73;3.33;;;;;;;;;;4939156;29;20484;-76
2023/05/20 04:45:23;;;;;;;9.27;3.42;;;;;;;;;;4939139;29;20420;-77
2023/05/20 04:47:52;;;;;;;3.33;3.03;;;;;;;;;;4939329;29;20710;-77
2023/05/20 04:50:18;;;;;;;5.37;3.60;;;;;;;;;;4938484;29;20468;-77
2023/05/20 04:52:48;;;;;;;3.45;2.70;;;;;;;;;;4939792;29;20410;-76
2023/05/20 04:55:14;;;;;;;5.83;3.37;;;;;;;;;;4939682;29;20685;-76
2023/05/20 04:57:41;;;;;;;4.03;2.90;;;;;;;;;;4939342;29;20405;-75
2023/05/20 05:00:09;;;;;;;4.05;3.70;;;;;;;;;;4939075;29;20413;-77
2023/05/20 05:02:35;;;;;;;4.05;3.33;;;;;;;;;;4938654;29;20240;-77
2023/05/20 05:05:01;;;;;;;4.30;3.20;;;;;;;;;;4940582;29;20180;-76
2023/05/20 05:07:27;;;;;;;6.60;2.97;;;;;;;;;;4942763;29;20445;-77
2023/05/20 05:09:53;;;;;;;3.30;2.97;;;;;;;;;;4942611;29;20192;-77
2023/05/20 05:12:19;;;;;;;3.37;2.90;;;;;;;;;;4942531;29;20406;-76
2023/05/20 05:14:45;;;;;;;5.77;3.47;;;;;;;;;;4942735;29;20477;-77
2023/05/20 05:17:11;;;;;;;3.53;2.90;;;;;;;;;;4942643;29;20413;-77
2023/05/20 05:19:37;;;;;;;6.33;3.20;;;;;;;;;;4942083;29;20413;-77
2023/05/20 05:22:03;;;;;;;5.33;3.30;;;;;;;;;;4942808;29;20399;-76
2023/05/20 05:24:29;;;;;;;5.17;3.37;;;;;;;;;;4942533;29;20410;-77
2023/05/20 05:26:55;;;;;;;4.10;3.50;;;;;;;;;;4942820;29;20406;-77
2023/05/20 05:29:21;;;;;;;5.20;2.70;;;;;;;;;;4942021;29;20406;-78
2023/05/20 05:31:47;;;;;;;3.80;3.00;;;;;;;;;;4942911;29;20406;-77
2023/05/20 05:34:13;;;;;;;5.27;3.20;;;;;;;;;;4942597;29;20416;-77
2023/05/20 05:36:40;;;;;;;4.15;3.35;;;;;;;;;;4942303;29;20433;-77
2023/05/20 05:39:06;;;;;;;6.70;2.93;;;;;;;;;;4942462;29;20173;-77
2023/05/20 05:41:33;;;;;;;5.07;3.03;;;;;;;;;;4941949;29;20398;-77
2023/05/20 05:43:59;;;;;;;5.50;3.50;;;;;;;;;;4942119;29;21060;-76
2023/05/20 05:46:25;;;;;;;4.13;3.10;;;;;;;;;;4942254;29;20414;-78
2023/05/20 05:48:51;;;;;;;5.67;2.80;;;;;;;;;;4942116;29;20422;-75
2023/05/20 05:51:17;;;;;;;5.40;3.30;;;;;;;;;;4925139;29;20482;-75
2023/05/20 05:53:43;;;;;;;3.60;3.13;;;;;;;;;;4942000;29;20437;-76
2023/05/20 05:56:10;;;;;;;6.87;3.50;;;;;;;;;;4941379;29;20405;-76
2023/05/20 05:58:36;;;;;;;5.27;3.10;;;;;;;;;;4941137;29;20417;-76
2023/05/20 06:01:02;;;;;;;3.40;2.70;;;;;;;;;;4941764;29;20437;-76
2023/05/20 06:03:28;;;;;;;4.03;2.90;;;;;;;;;;4941576;29;20520;-76
2023/05/20 06:05:55;;;;;;;5.10;3.67;;;;;;;;;;4941893;29;20416;-76
2023/05/20 06:08:21;;;;;;;4.50;3.00;;;;;;;;;;4941945;29;20413;-76
2023/05/20 06:10:48;;;;;;;3.40;3.03;;;;;;;;;;4941486;29;20383;-76
2023/05/20 06:13:14;;;;;;;3.10;2.80;;;;;;;;;;4942158;29;20925;-76
2023/05/20 06:15:40;;;;;;;3.63;2.70;;;;;;;;;;4941734;29;20437;-76
2023/05/20 06:18:06;;;;;;;4.27;3.20;;;;;;;;;;4941867;29;20401;-76
2023/05/20 06:20:32;;;;;;;4.93;2.70;;;;;;;;;;4941942;29;20425;-76
2023/05/20 06:22:58;;;;;;;3.90;3.53;;;;;;;;;;4941908;29;20467;-76
2023/05/20 06:25:25;;;;;;;3.83;2.90;;;;;;;;;;4941849;29;20411;-78
2023/05/20 06:27:51;;;;;;;3.30;2.93;;;;;;;;;;4941757;29;20425;-76
2023/05/20 06:30:17;;;;;;;3.70;2.97;;;;;;;;;;4941696;29;20445;-76
2023/05/20 06:32:43;;;;;;;4.07;2.67;;;;;;;;;;4941759;29;20417;-76
2023/05/20 06:35:09;;;;;;;2.80;2.50;;;;;;;;;;4941547;29;20898;-76
2023/05/20 06:37:35;;;;;;;5.40;2.93;;;;;;;;;;4941574;29;20416;-75
2023/05/20 06:40:01;;;;;;;3.87;3.00;;;;;;;;;;4941789;29;20392;-75
2023/05/20 06:42:27;;;;;;;3.63;2.70;;;;;;;;;;4940754;29;20543;-76
2023/05/20 06:44:53;;;;;;;5.77;2.70;;;;;;;;;;4941479;29;20449;-76
2023/05/20 06:47:19;;;;;;;2.93;2.70;;;;;;;;;;4940213;29;20418;-75
2023/05/20 06:49:45;;;;;;;3.60;2.87;;;;;;;;;;4940825;29;20429;-74
2023/05/20 06:52:11;;;;;;;3.37;2.90;;;;;;;;;;4938843;29;20443;-80
2023/05/20 06:54:40;;;;;;;3.97;2.43;;;;;;;;;;4938777;29;20406;-81
2023/05/20 06:57:09;;;;;;;5.00;3.00;;;;;;;;;;4939463;29;20504;-80
2023/05/20 06:59:38;;;;;;;4.40;3.00;;;;;;;;;;4939298;29;20406;-80
2023/05/20 07:02:04;;;;;;;3.40;3.07;;;;;;;;;;4938900;29;20445;-82
2023/05/20 07:04:30;;;;;;;3.40;2.87;;;;;;;;;;4887352;29;20496;-79
2023/05/20 07:06:56;;;;;;;2.70;2.30;;;;;;;;;;4811853;28;20503;-81
2023/05/20 07:09:22;;;;;;;5.97;3.20;;;;;;;;;;4799868;28;20456;-81
2023/05/20 07:11:49;;;;;;;4.00;2.20;;;;;;;;;;4785070;28;20546;-81
2023/05/20 07:14:15;;;;;;;2.57;2.30;;;;;;;;;;4764004;28;20448;-81
2023/05/20 07:16:41;;;;;;;4.57;2.60;;;;;;;;;;4805576;28;20503;-81
2023/05/20 07:19:07;;;;;;;5.13;2.40;;;;;;;;;;4797981;29;20480;-79
2023/05/20 07:21:33;;;;;;;2.97;2.70;;;;;;;;;;4832717;29;20863;-79
2023/05/20 07:23:59;;;;;;;4.13;2.93;;;;;;;;;;4948807;29;20472;-79
2023/05/20 07:26:25;;;;;;;3.47;2.60;;;;;;;;;;4957849;29;20399;-79
2023/05/20 07:28:51;;;;;;;3.60;2.50;;;;;;;;;;4956691;28;20399;-79
2023/05/20 07:31:17;;;;;;;5.73;2.40;;;;;;;;;;4957269;29;20394;-79
2023/05/20 07:33:43;;;;;;;3.27;2.83;;;;;;;;;;4957501;29;20428;-80
2023/05/20 07:36:09;;;;;;;2.83;2.40;;;;;;;;;;4957329;29;20810;-80
2023/05/20 07:38:36;;;;;;;5.30;2.80;;;;;;;;;;4956633;29;20408;-80
2023/05/20 07:41:02;;;;;;;2.70;2.50;;;;;;;;;;4957089;29;20419;-80
2023/05/20 07:43:28;;;;;;;4.33;2.80;;;;;;;;;;4956718;29;20442;-82
2023/05/20 07:45:54;;;;;;;5.20;2.97;;;;;;;;;;4956868;29;20722;-80
2023/05/20 07:48:20;;;;;;;3.83;2.93;;;;;;;;;;4956948;29;20386;-80
2023/05/20 07:50:46;;;;;;;3.23;2.37;;;;;;;;;;4956281;29;20535;-80
2023/05/20 07:53:12;;;;;;;7.00;3.37;;;;;;;;;;4955880;29;20422;-81
2023/05/20 07:55:38;;;;;;;3.87;3.00;;;;;;;;;;4956506;29;20418;-81
2023/05/20 07:58:05;;;;;;;4.37;2.90;;;;;;;;;;4938953;29;20837;-80
2023/05/20 08:00:31;;;;;;;4.13;3.27;;;;;;;;;;4956054;29;20984;-81
2023/05/20 08:02:57;;;;;;;3.40;3.10;;;;;;;;;;4956501;29;20567;-81
2023/05/20 08:05:23;;;;;;;4.13;2.90;;;;;;;;;;4956329;29;20438;-80
2023/05/20 08:07:49;;;;;;;4.20;3.07;;;;;;;;;;4955814;29;20544;-80
2023/05/20 08:10:15;;;;;;;3.77;2.73;;;;;;;;;;4956049;29;20402;-80
2023/05/20 08:12:41;;;;;;;4.37;2.80;;;;;;;;;;4938547;29;20424;-80
2023/05/20 08:15:07;;;;;;;5.83;2.80;;;;;;;;;;4956137;29;20770;-80
2023/05/20 08:17:34;;;;;;;4.37;3.30;;;;;;;;;;4955585;29;20865;-79
2023/05/20 08:20:00;;;;;;;4.83;2.60;;;;;;;;;;4938029;29;20531;-78
2023/05/20 08:22:26;;;;;;;3.60;2.83;;;;;;;;;;4955455;29;20460;-79
2023/05/20 08:24:52;;;;;;;3.50;3.00;;;;;;;;;;4954780;29;20412;-79
2023/05/20 08:27:18;;;;;;;2.97;2.53;;;;;;;;;;4937958;29;20392;-79
2023/05/20 08:29:44;;;;;;;3.17;2.80;;;;;;;;;;4955447;29;20467;-78
2023/05/20 08:32:10;;;;;;;3.50;3.20;;;;;;;;;;4951077;29;20395;-77
2023/05/20 08:34:36;;;;;;;3.33;3.03;;;;;;;;;;4949479;29;20422;-77
2023/05/20 08:37:02;;;;;;;3.90;2.83;;;;;;;;;;4954418;29;20408;-76
2023/05/20 08:39:28;;;;;;;4.50;3.13;;;;;;;;;;4955098;28;20503;-77
2023/05/20 08:41:55;;;;;;;4.23;2.93;;;;;;;;;;4958699;29;20832;-75
2023/05/20 08:44:21;;;;;;;2.60;2.40;;;;;;;;;;4958797;29;20857;-75
2023/05/20 08:46:48;;;;;;;3.73;3.07;;;;;;;;;;4957898;29;20760;-76
2023/05/20 08:49:14;;;;;;;8.87;2.90;;;;;;;;;;4958337;29;20448;-76
2023/05/20 08:51:41;;;;;;;5.72;2.90;;;;;;;;;;4921527;29;1077279;-76
2023/05/20 08:54:08;;;;;;;3.60;3.23;;;;;;;;;;4958922;29;20189;-76
2023/05/20 08:56:35;;;;;;;4.37;3.60;;;;;;;;;;4958942;29;20452;-76
2023/05/20 08:59:01;;;;;;;8.80;4.07;;;;;;;;;;4959797;29;20772;-77
2023/05/20 09:01:27;;;;;;;5.20;3.10;;;;;;;;;;4958720;29;20432;-76
2023/05/20 09:03:53;;;;;;;5.00;3.10;;;;;;;;;;4958890;29;20512;-77
2023/05/20 09:06:19;;;;;;;3.53;3.20;;;;;;;;;;4959106;29;20468;-76
2023/05/20 09:08:46;;;;;;;3.43;2.90;;;;;;;;;;4941089;29;20524;-77
2023/05/20 09:11:12;;;;;;;4.97;3.57;;;;;;;;;;4958545;29;20416;-77
2023/05/20 09:13:38;;;;;;;3.70;2.50;;;;;;;;;;4958586;29;20771;-77
2023/05/20 09:16:05;;;;;;;3.37;3.07;;;;;;;;;;4958358;29;20408;-77
2023/05/20 09:18:31;;;;;;;3.60;2.90;;;;;;;;;;4958514;29;20451;-77
2023/05/20 09:20:57;;;;;;;3.67;2.93;;;;;;;;;;4958068;29;20490;-77
2023/05/20 09:23:26;;;;;;;3.73;3.00;;;;;;;;;;4958053;29;20986;-77
2023/05/20 09:25:52;;;;;;;2.90;2.70;;;;;;;;;;4958663;29;20763;-76
2023/05/20 09:28:19;;;;;;;3.87;2.70;;;;;;;;;;4958659;29;20417;-77
2023/05/20 09:30:50;;;;;;;3.80;2.83;;;;;;;;;;4957654;29;20490;-77
2023/05/20 09:33:16;;;;;;;2.93;2.60;;;;;;;;;;4958997;29;20515;-77
2023/05/20 09:35:42;;;;;;;6.83;3.37;;;;;;;;;;4957682;29;20420;-77
2023/05/20 09:38:10;;;;;;;4.63;2.90;;;;;;;;;;4958505;29;20438;-77
2023/05/20 09:40:36;;;;;;;3.90;3.10;;;;;;;;;;4958153;29;20405;-76
2023/05/20 09:43:03;;;;;;;5.60;2.97;;;;;;;;;;4958347;29;20991;-75
2023/05/20 09:45:30;;;;;;;3.37;3.07;;;;;;;;;;4958049;29;20564;-77
2023/05/20 09:47:56;;;;;;;3.63;3.30;;;;;;;;;;4958110;29;20412;-76
2023/05/20 09:50:23;;;;;;;3.50;2.87;;;;;;;;;;4956860;28;20471;-76
2023/05/20 09:52:50;;;;;;;4.60;3.10;;;;;;;;;;4958559;29;20405;-76
2023/05/20 09:55:19;;;;;;;4.20;3.10;;;;;;;;;;4957673;29;20404;-76
2023/05/20 09:57:46;;;;;;;3.30;3.00;;;;;;;;;;4957472;29;20417;-76
2023/05/20 10:00:14;;;;;;;3.20;2.60;;;;;;;;;;4957008;29;20413;-76
2023/05/20 10:02:44;;;;;;;3.77;3.37;;;;;;;;;;4940134;29;21049;-76
2023/05/20 10:05:14;;;;;;;3.10;2.57;;;;;;;;;;4939649;29;20916;-77
2023/05/20 10:07:47;;;;;;;5.90;2.73;;;;;;;;;;4957108;29;20448;-76
2023/05/20 10:10:13;;;;;;;10.43;3.70;;;;;;;;;;4956826;29;20421;-76
2023/05/20 10:12:45;;;;;;;5.07;2.83;;;;;;;;;;4956263;29;20417;-76
2023/05/20 10:15:20;;;;;;;16.30;3.20;;;;;;;;;;4956438;29;20444;-76
2023/05/20 10:17:46;;;;;;;2.97;2.70;;;;;;;;;;4956238;29;20488;-76
2023/05/20 10:20:12;;;;;;;3.77;3.17;;;;;;;;;;4955657;29;20437;-76
2023/05/20 10:22:39;;;;;;;4.77;4.13;;;;;;;;;;4956307;29;20460;-76
2023/05/20 10:25:06;;;;;;;5.10;3.50;;;;;;;;;;4956772;29;20485;-76
2023/05/20 10:27:46;;;;;;;3.80;3.30;;;;;;;;;;4956205;29;20420;-76
2023/05/20 10:30:16;;;;;;;5.23;2.87;;;;;;;;;;4956440;29;20804;-76
2023/05/20 10:32:48;;;;;;;4.07;3.23;;;;;;;;;;4955882;29;20456;-76
2023/05/20 10:35:20;;;;;;;3.57;3.20;;;;;;;;;;4955898;29;20405;-77
2023/05/20 10:37:47;;;;;;;5.30;2.97;;;;;;;;;;4955625;29;20404;-76
2023/05/20 10:40:14;;;;;;;3.10;2.80;;;;;;;;;;4955737;29;20404;-77
2023/05/20 10:42:40;;;;;;;3.70;3.17;;;;;;;;;;4955659;29;20536;-77
2023/05/20 10:45:07;;;;;;;5.00;3.23;;;;;;;;;;4955562;29;20424;-77
2023/05/20 10:47:33;;;;;;;6.40;3.70;;;;;;;;;;4955248;29;20423;-77
2023/05/20 10:50:00;;;;;;;3.43;3.13;;;;;;;;;;4955280;29;20429;-76
2023/05/20 10:52:27;;;;;;;3.67;3.27;;;;;;;;;;4955999;29;20920;-77
2023/05/20 10:54:53;;;;;;;3.50;3.20;;;;;;;;;;4955546;29;20423;-76
2023/05/20 10:57:21;;;;;;;3.77;3.10;;;;;;;;;;4955644;29;20897;-77
2023/05/20 10:59:47;;;;;;;5.33;3.93;;;;;;;;;;4955836;29;20409;-77
2023/05/20 11:02:15;;;;;;;4.27;3.87;;;;;;;;;;4954477;28;20932;-77
2023/05/20 11:04:44;;;;;;;4.70;3.60;;;;;;;;;;4955240;29;20405;-77
2023/05/20 11:07:10;;;;;;;7.57;3.53;;;;;;;;;;4955373;29;20416;-77
2023/05/20 11:09:36;;;;;;;3.73;3.40;;;;;;;;;;4955036;29;20413;-77
2023/05/20 11:12:02;;;;;;;4.80;3.40;;;;;;;;;;4955970;29;20400;-76
2023/05/20 11:14:29;;;;;;;3.67;3.33;;;;;;;;;;4955352;29;20412;-77
2023/05/20 11:16:58;;;;;;;4.57;3.80;;;;;;;;;;4955419;29;20937;-78
2023/05/20 11:19:25;;;;;;;3.17;2.90;;;;;;;;;;4955401;29;20424;-77
2023/05/20 11:21:51;;;;;;;5.33;2.90;;;;;;;;;;4955047;29;20475;-76
2023/05/20 11:24:27;;;;;;;4.50;3.00;;;;;;;;;;4954866;29;20480;-77
2023/05/20 11:26:54;;;;;;;4.00;3.60;;;;;;;;;;4955244;29;20412;-77
2023/05/20 11:29:21;;;;;;;3.60;3.10;;;;;;;;;;4955635;29;20424;-77
2023/05/20 11:31:50;;;;;;;4.30;3.90;;;;;;;;;;4954698;29;20471;-75
2023/05/20 11:34:19;;;;;;;3.83;3.10;;;;;;;;;;4954804;29;20925;-75
2023/05/20 11:36:45;;;;;;;3.80;3.30;;;;;;;;;;4954876;29;20413;-74
2023/05/20 11:39:12;;;;;;;5.30;3.70;;;;;;;;;;4954794;29;20413;-75
2023/05/20 11:41:38;;;;;;;3.80;3.40;;;;;;;;;;4956474;29;20421;-78
2023/05/20 11:44:09;;;;;;;4.23;3.27;;;;;;;;;;4955525;29;20476;-78
2023/05/20 11:46:40;;;;;;;3.83;3.33;;;;;;;;;;4955783;29;20409;-78
2023/05/20 11:49:07;;;;;;;4.10;3.20;;;;;;;;;;4956282;29;20427;-79
2023/05/20 11:51:33;;;;;;;6.43;3.00;;;;;;;;;;4956346;29;20909;-78
2023/05/20 11:54:01;;;;;;;6.03;4.03;;;;;;;;;;4955694;29;20412;-78
2023/05/20 11:56:30;;;;;;;6.30;4.17;;;;;;;;;;4955257;29;20415;-78
2023/05/20 11:59:00;;;;;;;4.60;3.73;;;;;;;;;;4955293;29;20408;-77
2023/05/20 12:01:29;;;;;;;4.03;3.57;;;;;;;;;;4955830;29;20431;-80
2023/05/20 12:03:55;;;;;;;6.73;3.60;;;;;;;;;;4955393;29;20551;-77
2023/05/20 12:06:21;;;;;;;5.20;3.90;;;;;;;;;;4955474;29;20423;-79
2023/05/20 12:08:47;;;;;;;5.70;3.80;;;;;;;;;;4955427;29;20400;-78
2023/05/20 12:11:14;;;;;;;4.40;4.00;;;;;;;;;;4955905;29;20441;-80
2023/05/20 12:13:40;;;;;;;5.67;3.53;;;;;;;;;;4955147;28;20928;-80
2023/05/20 12:16:06;;;;;;;6.73;3.47;;;;;;;;;;4955906;29;20407;-77
2023/05/20 12:18:32;;;;;;;3.87;3.50;;;;;;;;;;4955297;29;20409;-77
2023/05/20 12:20:58;;;;;;;6.80;3.50;;;;;;;;;;4955083;29;20400;-77
2023/05/20 12:23:25;;;;;;;7.37;5.13;;;;;;;;;;4955340;29;20699;-77
2023/05/20 12:25:51;;;;;;;4.50;4.07;;;;;;;;;;4955634;29;20907;-77
2023/05/20 12:28:17;;;;;;;4.33;3.93;;;;;;;;;;4955590;29;20772;-80
2023/05/20 12:30:43;;;;;;;5.50;4.53;;;;;;;;;;4955462;29;20416;-79
2023/05/20 12:33:09;;;;;;;9.53;5.00;;;;;;;;;;4955176;29;20416;-77
2023/05/20 12:35:36;;;;;;;7.00;3.90;;;;;;;;;;4955063;29;20520;-77
2023/05/20 12:38:02;;;;;;;4.63;4.13;;;;;;;;;;4954730;29;20412;-77
2023/05/20 12:40:28;;;;;;;6.33;4.57;;;;;;;;;;4954928;29;20444;-80
2023/05/20 12:42:55;;;;;;;4.40;4.00;;;;;;;;;;4954926;29;20451;-78
2023/05/20 12:45:21;;;;;;;6.90;4.50;;;;;;;;;;4954849;29;20397;-78
2023/05/20 12:47:47;;;;;;;4.20;3.53;;;;;;;;;;4955167;29;20396;-79
2023/05/20 12:50:13;;;;;;;4.43;4.03;;;;;;;;;;4937730;29;20539;-77
2023/05/20 12:52:39;;;;;;;4.17;3.77;;;;;;;;;;4954957;29;20496;-78
2023/05/20 12:55:12;;;;;;;4.20;3.80;;;;;;;;;;4954732;29;20407;-78
2023/05/20 12:57:38;;;;;;;4.47;3.90;;;;;;;;;;4955315;29;20412;-79
2023/05/20 13:00:05;;;;;;;5.77;4.60;;;;;;;;;;4955187;29;20503;-78
2023/05/20 13:02:31;;;;;;;4.63;4.17;;;;;;;;;;4955299;29;20417;-79
2023/05/20 13:04:57;;;;;;;4.40;4.00;;;;;;;;;;4955023;29;20413;-79
2023/05/20 13:07:24;;;;;;;4.23;3.67;;;;;;;;;;4955062;29;20508;-78
2023/05/20 13:09:50;;;;;;;6.00;4.20;;;;;;;;;;4954676;29;20412;-79
2023/05/20 13:12:16;;;;;;;4.63;3.60;;;;;;;;;;4955130;29;20770;-79
2023/05/20 13:14:42;;;;;;;4.20;3.80;;;;;;;;;;4954842;29;20436;-78
2023/05/20 13:17:08;;;;;;;4.10;3.70;;;;;;;;;;4954631;29;20967;-78
2023/05/20 13:19:35;;;;;;;8.67;4.17;;;;;;;;;;4937847;29;20425;-78
2023/05/20 13:22:01;;;;;;;5.27;4.77;;;;;;;;;;4954676;29;20489;-78
2023/05/20 13:24:27;;;;;;;6.90;4.20;;;;;;;;;;4954479;29;20472;-79
2023/05/20 13:26:53;;;;;;;4.93;4.23;;;;;;;;;;4956468;28;20423;-78
2023/05/20 13:29:19;;;;;;;4.17;3.77;;;;;;;;;;4958394;29;20462;-78
2023/05/20 13:31:45;;;;;;;4.47;4.07;;;;;;;;;;4957824;29;20427;-78
2023/05/20 13:34:11;;;;;;;4.83;3.97;;;;;;;;;;4957778;29;20420;-78
2023/05/20 13:36:37;;;;;;;4.17;3.77;;;;;;;;;;4940790;29;20543;-78
2023/05/20 13:39:03;;;;;;;6.03;4.47;;;;;;;;;;4957477;29;20496;-78
2023/05/20 13:41:29;;;;;;;5.17;3.90;;;;;;;;;;4957948;29;20401;-78
2023/05/20 13:43:55;;;;;;;4.67;4.00;;;;;;;;;;4957775;29;20579;-78
2023/05/20 13:46:21;;;;;;;7.87;4.30;;;;;;;;;;4958163;29;20409;-78
2023/05/20 13:48:47;;;;;;;3.97;3.43;;;;;;;;;;4957969;29;20417;-79
2023/05/20 13:51:13;;;;;;;4.40;4.00;;;;;;;;;;4958487;29;20488;-79
2023/05/20 13:53:39;;;;;;;4.80;4.27;;;;;;;;;;4957986;29;20416;-79
2023/05/20 13:56:08;;;;;;;3.70;3.13;;;;;;;;;;4958010;29;20409;-79
2023/05/20 13:58:34;;;;;;;3.50;3.20;;;;;;;;;;4957855;29;20420;-78
2023/05/20 14:01:00;;;;;;;3.40;3.10;;;;;;;;;;4957854;29;20452;-79
2023/05/20 14:03:26;;;;;;;4.90;3.43;;;;;;;;;;4957763;29;20503;-79
2023/05/20 14:05:53;;;;;;;4.30;3.90;;;;;;;;;;4957669;29;20885;-79
2023/05/20 14:08:19;;;;;;;4.30;3.90;;;;;;;;;;4957754;29;20416;-79
2023/05/20 14:10:45;;;;;;;4.80;3.80;;;;;;;;;;4957806;29;20413;-79
2023/05/20 14:13:11;;;;;;;3.57;3.27;;;;;;;;;;4957473;29;20516;-78
2023/05/20 14:15:37;;;;;;;4.10;3.63;;;;;;;;;;4957561;29;20416;-79
2023/05/20 14:18:03;;;;;;;3.47;3.20;;;;;;;;;;4957259;29;20816;-76
2023/05/20 14:20:30;;;;;;;3.57;3.00;;;;;;;;;;4958062;29;20416;-76
2023/05/20 14:22:56;;;;;;;5.27;3.53;;;;;;;;;;4957690;29;20527;-76
2023/05/20 14:25:22;;;;;;;3.10;2.90;;;;;;;;;;4958439;29;20419;-76
2023/05/20 14:27:49;;;;;;;4.83;3.40;;;;;;;;;;4958701;29;20746;-78
2023/05/20 14:30:15;;;;;;;4.03;3.60;;;;;;;;;;4958011;29;20419;-76
2023/05/20 14:32:41;;;;;;;4.27;3.77;;;;;;;;;;4958383;29;20408;-76
2023/05/20 14:35:07;;;;;;;4.03;3.37;;;;;;;;;;4957912;29;20408;-76
2023/05/20 14:37:33;;;;;;;4.90;3.23;;;;;;;;;;4956863;28;20448;-76
2023/05/20 14:40:00;;;;;;;4.43;4.00;;;;;;;;;;4958374;29;20409;-76